createdAt,value
2022-09-21T00:01:31.379Z,100658.25
2022-09-21T00:04:03.128Z,100654.34
2022-09-21T00:06:34.178Z,100652.28
2022-09-21T00:09:01.124Z,100657.63
2022-09-21T00:11:29.886Z,100659.44
2022-09-21T00:14:04.617Z,100661.84
2022-09-21T00:16:32.159Z,100664.03
2022-09-21T00:19:01.586Z,100669.06
2022-09-21T00:21:28.565Z,100667.28
2022-09-21T00:23:55.528Z,100666.75
2022-09-21T00:26:24.556Z,100670.41
2022-09-21T00:28:55.810Z,100670.06
2022-09-21T00:31:22.829Z,100662.47
2022-09-21T00:33:51.166Z,100670.16
2022-09-21T00:36:19.772Z,100659.34
2022-09-21T00:38:51.793Z,100660.22
2022-09-21T00:41:18.458Z,100664.06
2022-09-21T00:44:23.409Z,100668.47
2022-09-21T00:46:53.280Z,100669.97
2022-09-21T00:49:21.862Z,100662.00
2022-09-21T00:51:50.132Z,100659.84
2022-09-21T00:54:24.093Z,100659.78
2022-09-21T00:56:50.902Z,100663.94
2022-09-21T00:59:21.507Z,100661.44
2022-09-21T01:01:48.938Z,100664.22
2022-09-21T01:04:18.400Z,100666.66
2022-09-21T01:06:46.224Z,100661.88
2022-09-21T01:09:12.780Z,100669.03
2022-09-21T01:12:10.159Z,100666.03
2022-09-21T01:15:12.184Z,100671.28
2022-09-21T01:18:17.691Z,100660.00
2022-09-21T01:21:04.163Z,100669.50
2022-09-21T01:23:57.127Z,100668.69
2022-09-21T01:26:45.362Z,100660.78
2022-09-21T01:29:38.423Z,100670.50
2022-09-21T01:32:28.096Z,100669.50
2022-09-21T01:35:08.887Z,100669.41
2022-09-21T01:37:48.015Z,100678.09
2022-09-21T01:40:21.739Z,100676.31
2022-09-21T01:42:50.160Z,100677.22
2022-09-21T01:45:21.114Z,100678.72
2022-09-21T01:47:49.818Z,100671.84
2022-09-21T01:50:17.606Z,100679.00
2022-09-21T01:52:50.351Z,100670.59
2022-09-21T01:55:23.290Z,100677.13
2022-09-21T01:57:59.433Z,100679.09
2022-09-21T02:00:26.592Z,100679.81
2022-09-21T02:02:59.312Z,100676.16
2022-09-21T02:05:30.326Z,100677.75
2022-09-21T02:07:58.610Z,100679.25
2022-09-21T02:10:40.019Z,100682.84
2022-09-21T02:13:08.127Z,100685.13
2022-09-21T02:15:59.188Z,100686.31
2022-09-21T02:19:03.570Z,100688.31
2022-09-21T02:21:41.285Z,100689.81
2022-09-21T02:24:32.119Z,100691.53
2022-09-21T02:27:29.344Z,100687.00
2022-09-21T02:30:16.100Z,100685.03
2022-09-21T02:33:05.615Z,100690.38
2022-09-21T02:35:36.252Z,100690.12
2022-09-21T02:38:12.256Z,100687.44
2022-09-21T02:40:54.098Z,100691.13
2022-09-21T02:43:30.390Z,100688.00
2022-09-21T02:46:06.108Z,100694.56
2022-09-21T02:48:38.067Z,100693.38
2022-09-21T02:51:10.742Z,100685.72
2022-09-21T02:53:40.662Z,100693.94
2022-09-21T02:56:09.304Z,100691.97
2022-09-21T02:58:40.117Z,100695.19
2022-09-21T03:01:10.391Z,100696.97
2022-09-21T03:03:37.096Z,100701.81
2022-09-21T03:06:03.855Z,100702.06
2022-09-21T03:08:30.521Z,100703.69
2022-09-21T03:10:57.811Z,100702.78
2022-09-21T03:13:25.004Z,100710.00
2022-09-21T03:16:02.746Z,100712.78
2022-09-21T03:18:29.933Z,100710.09
2022-09-21T03:20:56.504Z,100716.88
2022-09-21T03:23:23.153Z,100704.91
2022-09-21T03:25:50.069Z,100719.84
2022-09-21T03:28:16.628Z,100712.47
2022-09-21T03:30:43.275Z,100710.72
2022-09-21T03:33:11.459Z,100718.75
2022-09-21T03:35:38.046Z,100720.56
2022-09-21T03:38:04.601Z,100719.59
2022-09-21T03:40:31.768Z,100724.25
2022-09-21T03:42:58.631Z,100724.97
2022-09-21T03:45:27.205Z,100729.16
2022-09-21T03:47:58.317Z,100723.16
2022-09-21T03:50:29.222Z,100723.28
2022-09-21T03:52:56.935Z,100730.88
2022-09-21T03:55:24.193Z,100730.16
2022-09-21T03:57:50.845Z,100732.31
2022-09-21T04:00:17.942Z,100733.53
2022-09-21T04:02:44.542Z,100733.28
2022-09-21T04:05:14.956Z,100734.25
2022-09-21T04:07:42.741Z,100738.81
2022-09-21T04:10:13.050Z,100737.50
2022-09-21T04:12:42.882Z,100744.28
2022-09-21T04:15:11.586Z,100745.63
2022-09-21T04:17:38.419Z,100750.81
2022-09-21T04:20:05.733Z,100751.06
2022-09-21T04:22:32.272Z,100754.28
2022-09-21T04:24:58.826Z,100747.50
2022-09-21T04:27:25.460Z,100744.09
2022-09-21T04:29:52.070Z,100757.53
2022-09-21T04:32:18.595Z,100754.75
2022-09-21T04:34:45.132Z,100759.22
2022-09-21T04:37:11.966Z,100757.06
2022-09-21T04:39:38.951Z,100756.53
2022-09-21T04:42:06.084Z,100764.94
2022-09-21T04:44:32.617Z,100759.94
2022-09-21T04:46:59.336Z,100763.94
2022-09-21T04:49:26.164Z,100764.47
2022-09-21T04:51:52.826Z,100765.13
2022-09-21T04:54:19.394Z,100764.12
2022-09-21T04:56:45.987Z,100763.44
2022-09-21T04:59:12.558Z,100775.22
2022-09-21T05:01:39.199Z,100770.94
2022-09-21T05:04:05.818Z,100786.22
2022-09-21T05:06:34.032Z,100784.06
2022-09-21T05:09:19.302Z,100778.78
2022-09-21T05:11:48.219Z,100785.25
2022-09-21T05:14:14.978Z,100785.84
2022-09-21T05:16:41.492Z,100788.22
2022-09-21T05:19:08.088Z,100785.38
2022-09-21T05:21:36.407Z,100790.41
2022-09-21T05:24:03.403Z,100788.91
2022-09-21T05:26:29.960Z,100791.75
2022-09-21T05:28:58.073Z,100781.00
2022-09-21T05:31:39.281Z,100789.91
2022-09-21T05:34:39.324Z,100777.72
2022-09-21T05:37:05.813Z,100787.09
2022-09-21T05:39:32.808Z,100789.19
2022-09-21T05:41:59.802Z,100793.94
2022-09-21T05:44:26.610Z,100790.28
2022-09-21T05:47:06.861Z,100795.25
2022-09-21T05:49:44.811Z,100795.72
2022-09-21T05:52:46.912Z,100807.78
2022-09-21T05:55:31.319Z,100799.34
2022-09-21T05:58:35.649Z,100801.91
2022-09-21T06:01:20.429Z,100800.59
2022-09-21T06:03:49.886Z,100799.97
2022-09-21T06:06:18.067Z,100798.31
2022-09-21T06:08:44.862Z,100794.91
2022-09-21T06:11:11.871Z,100804.75
2022-09-21T06:13:38.485Z,100803.22
2022-09-21T06:16:05.422Z,100797.31
2022-09-21T06:18:31.993Z,100800.22
2022-09-21T06:20:58.535Z,100796.09
2022-09-21T06:23:25.087Z,100797.91
2022-09-21T06:25:57.493Z,100796.84
2022-09-21T06:28:25.608Z,100796.97
2022-09-21T06:30:53.775Z,100794.50
2022-09-21T06:33:21.324Z,100794.06
2022-09-21T06:35:55.466Z,100805.69
2022-09-21T06:38:22.504Z,100810.06
2022-09-21T06:40:49.819Z,100818.00
2022-09-21T06:43:16.488Z,100813.78
2022-09-21T06:45:43.176Z,100816.06
2022-09-21T06:48:10.060Z,100814.25
2022-09-21T06:50:36.806Z,100820.22
2022-09-21T06:53:04.010Z,100819.09
2022-09-21T06:55:31.640Z,100819.44
2022-09-21T06:58:02.416Z,100815.91
2022-09-21T07:00:29.718Z,100822.84
2022-09-21T07:02:56.297Z,100822.22
2022-09-21T07:05:22.844Z,100829.66
2022-09-21T07:07:53.485Z,100827.00
2022-09-21T07:10:20.845Z,100826.47
2022-09-21T07:12:47.749Z,100823.44
2022-09-21T07:15:15.456Z,100828.69
2022-09-21T07:17:51.795Z,100829.44
2022-09-21T07:20:21.414Z,100823.66
2022-09-21T07:22:47.950Z,100824.19
2022-09-21T07:25:14.633Z,100829.97
2022-09-21T07:27:41.562Z,100827.78
2022-09-21T07:30:09.095Z,100828.69
2022-09-21T07:32:36.517Z,100826.91
2022-09-21T07:35:03.233Z,100826.34
2022-09-21T07:37:31.807Z,100829.38
2022-09-21T07:39:58.542Z,100840.03
2022-09-21T07:42:26.448Z,100836.25
2022-09-21T07:45:03.334Z,100839.59
2022-09-21T07:47:30.420Z,100841.56
2022-09-21T07:49:56.991Z,100838.72
2022-09-21T07:52:23.622Z,100848.50
2022-09-21T07:54:50.225Z,100844.59
2022-09-21T07:57:35.457Z,100843.69
2022-09-21T08:00:02.343Z,100851.06
2022-09-21T08:02:28.935Z,100850.63
2022-09-21T08:04:55.781Z,100843.87
2022-09-21T08:07:22.407Z,100840.41
2022-09-21T08:09:50.805Z,100842.19
2022-09-21T08:12:18.768Z,100839.59
2022-09-21T08:14:45.740Z,100841.44
2022-09-21T08:17:12.389Z,100842.44
2022-09-21T08:19:38.981Z,100847.97
2022-09-21T08:22:06.459Z,100848.59
2022-09-21T08:24:33.232Z,100839.34
2022-09-21T08:27:00.280Z,100841.75
2022-09-21T08:29:26.878Z,100846.13
2022-09-21T08:31:53.744Z,100847.66
2022-09-21T08:34:20.360Z,100845.97
2022-09-21T08:36:47.599Z,100844.38
2022-09-21T08:39:15.394Z,100841.59
2022-09-21T08:41:50.971Z,100844.25
2022-09-21T08:44:29.037Z,100841.06
2022-09-21T08:49:55.486Z,100848.81
2022-09-21T08:52:45.339Z,100853.03
2022-09-21T08:55:23.841Z,100860.56
2022-09-21T08:57:54.942Z,100853.81
2022-09-21T09:00:26.229Z,100846.94
2022-09-21T09:03:19.072Z,100853.28
2022-09-21T09:05:56.125Z,100846.09
2022-09-21T09:08:37.514Z,100852.47
2022-09-21T09:11:50.528Z,100854.84
2022-09-21T09:14:39.365Z,100846.09
2022-09-21T09:18:00.338Z,100842.75
2022-09-21T09:20:36.242Z,100849.12
2022-09-21T09:23:26.991Z,100835.72
2022-09-21T09:25:59.412Z,100838.34
2022-09-21T09:28:31.953Z,100833.25
2022-09-21T09:31:21.282Z,100833.69
2022-09-21T09:34:08.921Z,100837.72
2022-09-21T09:36:57.377Z,100828.62
2022-09-21T09:39:24.491Z,100829.16
2022-09-21T09:42:15.599Z,100829.09
2022-09-21T09:45:06.659Z,100838.09
2022-09-21T09:47:50.565Z,100835.78
2022-09-21T09:50:30.493Z,100829.91
2022-09-21T09:53:05.158Z,100837.72
2022-09-21T09:55:46.813Z,100831.78
2022-09-21T09:58:39.431Z,100827.37
2022-09-21T10:01:06.326Z,100825.56
2022-09-21T10:03:32.913Z,100822.75
2022-09-21T10:05:59.626Z,100820.47
2022-09-21T10:08:29.129Z,100824.69
2022-09-21T10:10:56.024Z,100816.69
2022-09-21T10:13:30.722Z,100822.25
2022-09-21T10:16:01.279Z,100825.53
2022-09-21T10:18:39.892Z,100820.44
2022-09-21T10:21:17.897Z,100821.97
2022-09-21T10:23:52.368Z,100821.59
2022-09-21T10:26:20.049Z,100808.62
2022-09-21T10:28:59.912Z,100807.91
2022-09-21T10:31:30.795Z,100812.12
2022-09-21T10:34:16.546Z,100810.63
2022-09-21T10:36:57.117Z,100813.03
2022-09-21T10:39:30.838Z,100820.72
2022-09-21T10:42:10.806Z,100811.72
2022-09-21T10:44:40.526Z,100807.22
2022-09-21T10:47:32.073Z,100810.91
2022-09-21T10:50:01.640Z,100807.97
2022-09-21T10:52:45.963Z,100805.88
2022-09-21T10:55:20.936Z,100810.41
2022-09-21T10:57:48.556Z,100810.13
2022-09-21T11:00:23.979Z,100813.81
2022-09-21T11:02:51.013Z,100813.75
2022-09-21T11:05:24.161Z,100810.44
2022-09-21T11:08:07.965Z,100805.59
2022-09-21T11:10:46.253Z,100807.88
2022-09-21T11:13:36.800Z,100806.16
2022-09-21T11:16:21.186Z,100806.16
2022-09-21T11:19:06.394Z,100807.44
2022-09-21T11:21:50.145Z,100804.56
2022-09-21T11:24:48.465Z,100801.38
2022-09-21T11:27:20.134Z,100794.91
2022-09-21T11:30:03.370Z,100775.66
2022-09-21T11:33:00.867Z,100782.56
2022-09-21T11:35:47.506Z,100783.88
2022-09-21T11:38:34.631Z,100776.88
2022-09-21T11:41:26.188Z,100777.75
2022-09-21T11:44:27.153Z,100775.16
2022-09-21T11:47:29.651Z,100767.88
2022-09-21T11:50:30.288Z,100768.16
2022-09-21T11:53:16.313Z,100772.13
2022-09-21T11:55:51.588Z,100767.09
2022-09-21T11:58:40.315Z,100763.81
2022-09-21T12:01:19.501Z,100760.38
2022-09-21T12:04:30.104Z,100753.47
2022-09-21T12:07:37.331Z,100760.28
2022-09-21T12:10:22.462Z,100755.63
2022-09-21T12:13:00.712Z,100748.84
2022-09-21T12:15:49.032Z,100753.78
2022-09-21T12:18:34.264Z,100745.91
2022-09-21T12:21:20.554Z,100750.94
2022-09-21T12:23:54.340Z,100750.22
2022-09-21T12:26:37.955Z,100745.13
2022-09-21T12:29:25.261Z,100745.25
2022-09-21T12:32:19.313Z,100737.63
2022-09-21T12:34:51.496Z,100743.59
2022-09-21T12:37:50.617Z,100731.84
2022-09-21T12:40:25.639Z,100731.06
2022-09-21T12:43:01.777Z,100727.41
2022-09-21T12:45:56.182Z,100734.66
2022-09-21T12:48:28.378Z,100735.72
2022-09-21T12:50:56.132Z,100715.47
2022-09-21T12:53:27.328Z,100722.31
2022-09-21T12:56:08.949Z,100717.16
2022-09-21T12:58:57.744Z,100721.16
2022-09-21T13:01:32.673Z,100721.19
2022-09-21T13:03:59.349Z,100722.66
2022-09-21T13:06:56.619Z,100712.16
2022-09-21T13:09:24.700Z,100717.00
2022-09-21T13:11:59.145Z,100722.38
2022-09-21T13:14:34.752Z,100735.06
2022-09-21T13:17:04.116Z,100743.56
2022-09-21T13:19:35.747Z,100741.03
2022-09-21T13:22:19.742Z,100752.41
2022-09-21T13:25:01.359Z,100749.31
2022-09-21T13:28:07.722Z,100744.19
2022-09-21T13:30:37.133Z,100748.13
2022-09-21T13:33:25.299Z,100747.84
2022-09-21T13:36:04.036Z,100741.22
2022-09-21T13:38:40.314Z,100734.31
2022-09-21T13:41:18.877Z,100735.56
2022-09-21T13:44:18.546Z,100733.59
2022-09-21T13:46:49.398Z,100728.19
2022-09-21T13:49:16.001Z,100727.12
2022-09-21T13:52:00.568Z,100716.28
2022-09-21T13:54:48.020Z,100716.78
2022-09-21T13:57:30.159Z,100714.00
2022-09-21T14:00:12.843Z,100711.53
2022-09-21T14:02:40.565Z,100721.19
2022-09-21T14:05:39.858Z,100720.31
2022-09-21T14:08:15.681Z,100714.00
2022-09-21T14:10:50.973Z,100749.94
2022-09-21T14:13:34.788Z,100736.03
2022-09-21T14:16:29.529Z,100730.72
2022-09-21T14:18:57.776Z,100743.00
2022-09-21T14:21:24.584Z,100745.13
2022-09-21T14:24:06.380Z,100728.94
2022-09-21T14:26:42.334Z,100735.72
2022-09-21T14:29:11.542Z,100745.28
2022-09-21T14:31:41.518Z,100743.31
2022-09-21T14:34:16.249Z,100741.44
2022-09-21T14:36:47.373Z,100734.75
2022-09-21T14:39:21.541Z,100723.19
2022-09-21T14:41:52.336Z,100730.69
2022-09-21T14:44:30.170Z,100725.47
2022-09-21T14:47:25.419Z,100718.00
2022-09-21T14:50:14.374Z,100711.72
2022-09-21T14:53:08.156Z,100716.00
2022-09-21T14:55:49.766Z,100708.50
2022-09-21T14:58:28.190Z,100700.59
2022-09-21T15:00:55.414Z,100710.22
2022-09-21T15:03:39.503Z,100700.66
2022-09-21T15:06:34.396Z,100709.88
2022-09-21T15:09:54.116Z,100703.66
2022-09-21T15:12:28.789Z,100700.72
2022-09-21T15:15:23.246Z,100710.38
2022-09-21T15:17:59.804Z,100699.28
2022-09-21T15:20:29.489Z,100695.69
2022-09-21T15:22:58.484Z,100700.56
2022-09-21T15:25:29.015Z,100711.59
2022-09-21T15:27:55.763Z,100707.03
2022-09-21T15:30:29.421Z,100698.53
2022-09-21T15:32:59.710Z,100696.78
2022-09-21T15:35:35.732Z,100691.28
2022-09-21T15:38:02.342Z,100690.56
2022-09-21T15:40:33.229Z,100702.19
2022-09-21T15:43:05.721Z,100706.22
2022-09-21T15:45:51.901Z,100704.53
2022-09-21T15:48:20.633Z,100707.50
2022-09-21T15:51:01.669Z,100705.53
2022-09-21T15:53:34.493Z,100718.66
2022-09-21T15:56:01.575Z,100719.69
2022-09-21T15:58:37.442Z,100718.00
2022-09-21T16:01:11.658Z,100719.47
2022-09-21T16:03:39.935Z,100721.19
2022-09-21T16:06:26.297Z,100722.81
2022-09-21T16:08:53.681Z,100726.91
2022-09-21T16:11:34.396Z,100724.25
2022-09-21T16:14:31.879Z,100725.16
2022-09-21T16:17:13.401Z,100729.38
2022-09-21T16:20:03.348Z,100728.53
2022-09-21T16:22:44.768Z,100728.44
2022-09-21T16:25:30.237Z,100727.03
2022-09-21T16:28:02.612Z,100721.37
2022-09-21T16:30:51.047Z,100733.34
2022-09-21T16:33:44.320Z,100730.75
2022-09-21T16:36:20.097Z,100733.47
2022-09-21T16:38:47.241Z,100734.72
2022-09-21T16:41:14.605Z,100741.66
2022-09-21T16:43:43.642Z,100739.41
2022-09-21T16:46:11.152Z,100749.28
2022-09-21T16:48:38.386Z,100746.03
2022-09-21T16:51:11.876Z,100752.50
2022-09-21T16:53:38.458Z,100755.72
2022-09-21T16:56:07.053Z,100755.09
2022-09-21T16:58:34.767Z,100756.06
2022-09-21T17:01:02.841Z,100747.91
2022-09-21T17:03:31.573Z,100752.00
2022-09-21T17:05:58.102Z,100752.47
2022-09-21T17:08:25.022Z,100751.69
2022-09-21T17:10:51.673Z,100762.81
2022-09-21T17:13:19.250Z,100773.38
2022-09-21T17:15:48.892Z,100774.62
2022-09-21T17:18:15.533Z,100772.28
2022-09-21T17:20:44.788Z,100776.66
2022-09-21T17:23:12.385Z,100777.50
2022-09-21T17:25:39.031Z,100778.59
2022-09-21T17:28:14.475Z,100775.87
2022-09-21T17:30:42.522Z,100784.09
2022-09-21T17:33:10.813Z,100777.72
2022-09-21T17:35:40.059Z,100784.12
2022-09-21T17:38:14.335Z,100794.22
2022-09-21T17:40:42.714Z,100787.13
2022-09-21T17:43:26.950Z,100792.59
2022-09-21T17:46:03.679Z,100803.03
2022-09-21T17:48:33.931Z,100796.22
2022-09-21T17:51:01.232Z,100805.03
2022-09-21T17:53:34.747Z,100803.03
2022-09-21T17:56:18.401Z,100809.87
2022-09-21T17:58:48.517Z,100815.56
2022-09-21T18:01:20.963Z,100812.59
2022-09-21T18:03:48.593Z,100809.47
2022-09-21T18:06:15.644Z,100821.13
2022-09-21T18:08:42.501Z,100820.94
2022-09-21T18:11:18.422Z,100818.94
2022-09-21T18:14:22.275Z,100824.94
2022-09-21T18:17:23.097Z,100823.75
2022-09-21T18:19:49.628Z,100820.94
2022-09-21T18:22:34.215Z,100831.22
2022-09-21T18:25:01.030Z,100843.84
2022-09-21T18:27:27.804Z,100825.59
2022-09-21T18:29:54.503Z,100833.00
2022-09-21T18:32:41.084Z,100835.41
2022-09-21T18:35:34.852Z,100835.84
2022-09-21T18:38:27.567Z,100836.03
2022-09-21T18:41:34.058Z,100837.47
2022-09-21T18:44:25.309Z,100826.41
2022-09-21T18:47:16.999Z,100828.22
2022-09-21T18:50:02.821Z,100839.03
2022-09-21T18:52:56.110Z,100839.47
2022-09-21T18:55:28.002Z,100836.44
2022-09-21T18:57:58.172Z,100847.06
2022-09-21T19:00:31.560Z,100850.87
2022-09-21T19:03:17.165Z,100846.66
2022-09-21T19:05:54.785Z,100848.50
2022-09-21T19:08:56.652Z,100850.09
2022-09-21T19:11:49.413Z,100848.25
2022-09-21T19:14:51.163Z,100851.44
2022-09-21T19:17:35.866Z,100848.34
2022-09-21T19:20:34.203Z,100856.66
2022-09-21T19:23:31.081Z,100855.66
2022-09-21T19:26:12.829Z,100855.53
2022-09-21T19:29:30.145Z,100856.66
2022-09-21T19:31:56.785Z,100848.94
2022-09-21T19:34:23.678Z,100854.47
2022-09-21T19:37:04.430Z,100851.41
2022-09-21T19:39:34.141Z,100851.97
2022-09-21T19:42:15.779Z,100855.09
2022-09-21T19:44:57.374Z,100851.59
2022-09-21T19:47:55.344Z,100843.34
2022-09-21T19:50:26.696Z,100846.34
2022-09-21T19:53:13.607Z,100852.81
2022-09-21T19:56:02.100Z,100855.62
2022-09-21T19:58:47.582Z,100845.53
2022-09-21T20:01:17.947Z,100845.38
2022-09-21T20:03:45.726Z,100838.66
2022-09-21T20:06:39.013Z,100834.09
2022-09-21T20:09:16.645Z,100842.84
2022-09-21T20:12:04.316Z,100844.75
2022-09-21T20:14:39.996Z,100848.22
2022-09-21T20:17:12.260Z,100844.28
2022-09-21T20:20:22.738Z,100845.97
2022-09-21T20:22:50.001Z,100853.47
2022-09-21T20:25:24.973Z,100848.88
2022-09-21T20:27:55.307Z,100845.84
2022-09-21T20:30:25.854Z,100849.47
2022-09-21T20:32:56.000Z,100853.66
2022-09-21T20:35:25.430Z,100853.66
2022-09-21T20:37:55.010Z,100853.75
2022-09-21T20:40:28.830Z,100854.09
2022-09-21T20:43:00.956Z,100858.81
2022-09-21T20:45:28.620Z,100857.37
2022-09-21T20:47:57.190Z,100857.28
2022-09-21T20:50:30.482Z,100860.56
2022-09-21T20:52:57.290Z,100861.34
2022-09-21T20:55:24.337Z,100861.41
2022-09-21T20:57:51.110Z,100851.41
2022-09-21T21:00:18.219Z,100859.50
2022-09-21T21:02:45.037Z,100860.47
2022-09-21T21:05:11.653Z,100865.06
2022-09-21T21:07:42.452Z,100863.13
2022-09-21T21:10:13.284Z,100867.66
2022-09-21T21:12:41.825Z,100859.72
2022-09-21T21:15:12.538Z,100852.34
2022-09-21T21:17:40.170Z,100854.13
2022-09-21T21:20:08.808Z,100856.06
2022-09-21T21:22:35.540Z,100856.12
2022-09-21T21:25:02.095Z,100856.47
2022-09-21T21:27:28.838Z,100859.50
2022-09-21T21:29:55.595Z,100849.50
2022-09-21T21:32:25.215Z,100853.38
2022-09-21T21:34:55.777Z,100853.47
2022-09-21T21:37:24.963Z,100849.25
2022-09-21T21:39:52.676Z,100854.50
2022-09-21T21:42:20.682Z,100849.59
2022-09-21T21:44:48.114Z,100851.44
2022-09-21T21:47:38.093Z,100851.75
2022-09-21T21:50:01.467Z,100851.16
2022-09-21T21:52:28.001Z,100851.59
2022-09-21T21:54:54.824Z,100844.53
2022-09-21T21:57:21.355Z,100849.78
2022-09-21T21:59:47.947Z,100843.13
2022-09-21T22:02:15.424Z,100841.22
2022-09-21T22:04:42.187Z,100841.59
2022-09-21T22:07:08.783Z,100835.78
2022-09-21T22:09:35.435Z,100836.87
2022-09-21T22:12:03.550Z,100834.75
2022-09-21T22:14:30.317Z,100841.31
2022-09-21T22:16:59.182Z,100838.72
2022-09-21T22:19:25.757Z,100833.72
2022-09-21T22:21:54.483Z,100843.28
2022-09-21T22:24:21.680Z,100837.78
2022-09-21T22:26:51.055Z,100843.16
2022-09-21T22:29:17.655Z,100836.38
2022-09-21T22:31:48.265Z,100835.00
2022-09-21T22:34:15.912Z,100835.50
2022-09-21T22:36:45.787Z,100832.00
2022-09-21T22:39:12.989Z,100835.97
2022-09-21T22:41:41.558Z,100837.78
2022-09-21T22:44:08.731Z,100831.84
2022-09-21T22:46:35.547Z,100830.91
2022-09-21T22:49:02.443Z,100826.94
2022-09-21T22:51:29.738Z,100824.84
2022-09-21T22:53:57.239Z,100824.06
2022-09-21T22:56:30.040Z,100815.84
2022-09-21T22:58:59.413Z,100825.41
2022-09-21T23:01:27.364Z,100819.16
2022-09-21T23:03:57.372Z,100821.91
2022-09-21T23:06:29.127Z,100815.47
2022-09-21T23:08:57.553Z,100815.47
2022-09-21T23:11:27.103Z,100822.41
2022-09-21T23:13:55.168Z,100820.00
2022-09-21T23:16:22.649Z,100809.84
2022-09-21T23:18:49.933Z,100817.44
2022-09-21T23:21:19.275Z,100827.97
2022-09-21T23:23:47.202Z,100817.13
2022-09-21T23:26:16.531Z,100821.81
2022-09-21T23:28:45.733Z,100814.88
2022-09-21T23:31:14.954Z,100811.97
2022-09-21T23:33:44.405Z,100823.13
2022-09-21T23:36:13.803Z,100819.06
2022-09-21T23:38:41.748Z,100827.66
2022-09-21T23:41:14.084Z,100816.63
2022-09-21T23:43:42.416Z,100820.16
2022-09-21T23:46:11.349Z,100826.78
2022-09-21T23:48:38.256Z,100829.22
2022-09-21T23:51:05.354Z,100825.16
2022-09-21T23:53:32.218Z,100820.47
2022-09-21T23:56:00.606Z,100821.28
2022-09-21T23:58:27.919Z,100821.28
